createdAt,value
2023-03-01T00:00:33.706Z,1027.42
2023-03-01T00:01:33.648Z,1027.39
2023-03-01T00:02:33.715Z,1027.44
2023-03-01T00:03:33.718Z,1027.46
2023-03-01T00:04:33.714Z,1027.44
2023-03-01T00:05:33.634Z,1027.45
2023-03-01T00:06:33.827Z,1027.49
2023-03-01T00:07:33.613Z,1027.46
2023-03-01T00:08:33.623Z,1027.49
2023-03-01T00:09:33.599Z,1027.44
2023-03-01T00:10:33.591Z,1027.56
2023-03-01T00:11:33.570Z,1027.52
2023-03-01T00:12:33.543Z,1027.56
2023-03-01T00:13:33.582Z,1027.52
2023-03-01T00:14:33.581Z,1027.59
2023-03-01T00:15:33.504Z,1027.56
2023-03-01T00:16:33.885Z,1027.50
2023-03-01T00:17:33.501Z,1027.54
2023-03-01T00:18:33.494Z,1027.46
2023-03-01T00:19:33.537Z,1027.52
2023-03-01T00:20:33.446Z,1027.45
2023-03-01T00:21:33.424Z,1027.47
2023-03-01T00:22:33.474Z,1027.53
2023-03-01T00:23:33.387Z,1027.53
2023-03-01T00:24:33.420Z,1027.44
2023-03-01T00:25:33.451Z,1027.40
2023-03-01T00:26:33.555Z,1027.48
2023-03-01T00:27:33.371Z,1027.44
2023-03-01T00:28:33.369Z,1027.44
2023-03-01T00:29:33.346Z,1027.42
2023-03-01T00:30:33.369Z,1027.43
2023-03-01T00:31:33.308Z,1027.41
2023-03-01T00:32:33.284Z,1027.42
2023-03-01T00:33:33.291Z,1027.44
2023-03-01T00:34:33.269Z,1027.48
2023-03-01T00:35:33.311Z,1027.46
2023-03-01T00:36:33.640Z,1027.41
2023-03-01T00:37:33.215Z,1027.47
2023-03-01T00:38:33.227Z,1027.41
2023-03-01T00:39:33.227Z,1027.37
2023-03-01T00:40:33.233Z,1027.34
2023-03-01T00:41:33.183Z,1027.33
2023-03-01T00:42:33.178Z,1027.34
2023-03-01T00:43:33.153Z,1027.41
2023-03-01T00:44:33.168Z,1027.32
2023-03-01T00:45:33.173Z,1027.36
2023-03-01T00:46:33.562Z,1027.41
2023-03-01T00:47:33.101Z,1027.35
2023-03-01T00:48:33.080Z,1027.36
2023-03-01T00:49:33.112Z,1027.34
2023-03-01T00:50:33.101Z,1027.34
2023-03-01T00:51:33.135Z,1027.29
2023-03-01T00:52:33.037Z,1027.32
2023-03-01T00:53:33.032Z,1027.32
2023-03-01T00:54:33.004Z,1027.33
2023-03-01T00:55:33.066Z,1027.28
2023-03-01T00:56:33.517Z,1027.27
2023-03-01T00:57:33.017Z,1027.29
2023-03-01T00:58:32.984Z,1027.28
2023-03-01T00:59:32.965Z,1027.28
2023-03-01T01:00:32.939Z,1027.29
2023-03-01T01:01:33.006Z,1027.25
2023-03-01T01:02:32.942Z,1027.26
2023-03-01T01:03:32.898Z,1027.23
2023-03-01T01:04:32.888Z,1027.24
2023-03-01T01:05:32.916Z,1027.29
2023-03-01T01:06:33.306Z,1027.25
2023-03-01T01:07:32.898Z,1027.25
2023-03-01T01:08:32.864Z,1027.26
2023-03-01T01:09:32.827Z,1027.28
2023-03-01T01:10:32.851Z,1027.20
2023-03-01T01:11:32.795Z,1027.21
2023-03-01T01:12:32.821Z,1027.19
2023-03-01T01:13:32.811Z,1027.16
2023-03-01T01:14:32.780Z,1027.15
2023-03-01T01:15:32.805Z,1027.22
2023-03-01T01:16:33.281Z,1027.13
2023-03-01T01:17:32.761Z,1027.17
2023-03-01T01:18:32.779Z,1027.10
2023-03-01T01:19:32.694Z,1027.12
2023-03-01T01:20:32.673Z,1027.12
2023-03-01T01:21:32.730Z,1027.10
2023-03-01T01:22:32.645Z,1027.06
2023-03-01T01:23:32.650Z,1027.02
2023-03-01T01:24:32.677Z,1027.12
2023-03-01T01:25:32.632Z,1027.04
2023-03-01T01:26:33.161Z,1027.03
2023-03-01T01:27:32.650Z,1027.00
2023-03-01T01:28:32.610Z,1026.98
2023-03-01T01:29:32.627Z,1026.93
2023-03-01T01:30:32.577Z,1026.92
2023-03-01T01:31:32.794Z,1026.86
2023-03-01T01:32:32.574Z,1026.88
2023-03-01T01:33:32.550Z,1026.88
2023-03-01T01:34:32.539Z,1026.84
2023-03-01T01:35:32.559Z,1026.84
2023-03-01T01:36:32.910Z,1026.77
2023-03-01T01:37:32.493Z,1026.79
2023-03-01T01:38:32.482Z,1026.81
2023-03-01T01:39:32.465Z,1026.80
2023-03-01T01:40:32.436Z,1026.79
2023-03-01T01:41:32.488Z,1026.81
2023-03-01T01:42:32.414Z,1026.78
2023-03-01T01:43:32.451Z,1026.76
2023-03-01T01:44:32.411Z,1026.72
2023-03-01T01:45:32.417Z,1026.70
2023-03-01T01:46:32.938Z,1026.70
2023-03-01T01:47:32.380Z,1026.75
2023-03-01T01:48:32.332Z,1026.68
2023-03-01T01:49:32.360Z,1026.65
2023-03-01T01:50:32.304Z,1026.66
2023-03-01T01:51:32.350Z,1026.67
2023-03-01T01:52:32.317Z,1026.68
2023-03-01T01:53:32.308Z,1026.66
2023-03-01T01:54:32.300Z,1026.59
2023-03-01T01:55:32.278Z,1026.64
2023-03-01T01:56:32.585Z,1026.61
2023-03-01T01:57:32.241Z,1026.61
2023-03-01T01:58:32.200Z,1026.58
2023-03-01T01:59:32.226Z,1026.57
2023-03-01T02:00:32.190Z,1026.51
2023-03-01T02:01:32.215Z,1026.52
2023-03-01T02:02:32.319Z,1026.53
2023-03-01T02:03:32.272Z,1026.57
2023-03-01T02:04:32.126Z,1026.50
2023-03-01T02:05:32.135Z,1026.54
2023-03-01T02:06:32.631Z,1026.49
2023-03-01T02:07:32.135Z,1026.51
2023-03-01T02:08:32.104Z,1026.47
2023-03-01T02:09:32.075Z,1026.41
2023-03-01T02:10:32.073Z,1026.39
2023-03-01T02:11:32.058Z,1026.38
2023-03-01T02:12:32.065Z,1026.39
2023-03-01T02:13:32.054Z,1026.41
2023-03-01T02:14:32.036Z,1026.41
2023-03-01T02:15:32.033Z,1026.44
2023-03-01T02:16:32.601Z,1026.42
2023-03-01T02:17:31.972Z,1026.42
2023-03-01T02:18:31.936Z,1026.43
2023-03-01T02:19:31.959Z,1026.45
2023-03-01T02:20:31.917Z,1026.52
2023-03-01T02:21:31.958Z,1026.42
2023-03-01T02:22:31.947Z,1026.46
2023-03-01T02:23:31.931Z,1026.44
2023-03-01T02:24:31.921Z,1026.42
2023-03-01T02:25:31.931Z,1026.46
2023-03-01T02:26:32.410Z,1026.49
2023-03-01T02:27:31.919Z,1026.40
2023-03-01T02:28:31.853Z,1026.49
2023-03-01T02:29:31.824Z,1026.51
2023-03-01T02:30:31.833Z,1026.50
2023-03-01T02:31:31.837Z,1026.42
2023-03-01T02:32:31.819Z,1026.45
2023-03-01T02:33:31.782Z,1026.42
2023-03-01T02:34:31.783Z,1026.48
2023-03-01T02:35:31.778Z,1026.51
2023-03-01T02:36:32.314Z,1026.55
2023-03-01T02:37:31.801Z,1026.61
2023-03-01T02:38:31.738Z,1026.56
2023-03-01T02:39:31.727Z,1026.55
2023-03-01T02:40:31.713Z,1026.43
2023-03-01T02:41:31.708Z,1026.45
2023-03-01T02:42:31.687Z,1026.47
2023-03-01T02:43:31.663Z,1026.49
2023-03-01T02:44:31.665Z,1026.50
2023-03-01T02:45:31.668Z,1026.48
2023-03-01T02:46:32.045Z,1026.44
2023-03-01T02:47:31.620Z,1026.48
2023-03-01T02:48:31.627Z,1026.48
2023-03-01T02:49:31.621Z,1026.51
2023-03-01T02:50:31.565Z,1026.46
2023-03-01T02:51:31.548Z,1026.45
2023-03-01T02:52:31.564Z,1026.43
2023-03-01T02:53:31.565Z,1026.46
2023-03-01T02:54:31.534Z,1026.41
2023-03-01T02:55:31.509Z,1026.48
2023-03-01T02:56:31.868Z,1026.44
2023-03-01T02:57:31.527Z,1026.45
2023-03-01T02:58:31.485Z,1026.44
2023-03-01T02:59:31.445Z,1026.39
2023-03-01T03:00:31.536Z,1026.43
2023-03-01T03:01:31.425Z,1026.39
2023-03-01T03:02:31.460Z,1026.37
2023-03-01T03:03:31.440Z,1026.40
2023-03-01T03:04:31.451Z,1026.34
2023-03-01T03:05:31.430Z,1026.44
2023-03-01T03:06:31.842Z,1026.35
2023-03-01T03:07:31.387Z,1026.37
2023-03-01T03:08:31.382Z,1026.33
2023-03-01T03:09:31.350Z,1026.30
2023-03-01T03:10:31.358Z,1026.31
2023-03-01T03:11:31.304Z,1026.30
2023-03-01T03:12:31.328Z,1026.23
2023-03-01T03:13:31.311Z,1026.24
2023-03-01T03:14:31.280Z,1026.22
2023-03-01T03:15:31.283Z,1026.27
2023-03-01T03:16:31.601Z,1026.23
2023-03-01T03:17:31.273Z,1026.20
2023-03-01T03:18:31.280Z,1026.22
2023-03-01T03:19:31.225Z,1026.21
2023-03-01T03:20:31.192Z,1026.26
2023-03-01T03:21:31.218Z,1026.28
2023-03-01T03:22:31.207Z,1026.25
2023-03-01T03:23:31.156Z,1026.24
2023-03-01T03:24:31.168Z,1026.24
2023-03-01T03:25:31.139Z,1026.19
2023-03-01T03:26:31.464Z,1026.16
2023-03-01T03:27:31.149Z,1026.15
2023-03-01T03:28:31.102Z,1026.17
2023-03-01T03:29:31.077Z,1026.12
2023-03-01T03:30:31.057Z,1026.12
2023-03-01T03:31:31.153Z,1026.08
2023-03-01T03:32:31.114Z,1026.14
2023-03-01T03:33:31.032Z,1026.07
2023-03-01T03:34:31.051Z,1026.07
2023-03-01T03:35:31.257Z,1026.12
2023-03-01T03:36:31.156Z,1026.16
2023-03-01T03:37:31.024Z,1026.21
2023-03-01T03:38:30.980Z,1026.19
2023-03-01T03:39:30.956Z,1026.20
2023-03-01T03:40:30.934Z,1026.12
2023-03-01T03:41:30.949Z,1026.16
2023-03-01T03:42:30.940Z,1026.17
2023-03-01T03:43:30.922Z,1026.15
2023-03-01T03:44:30.890Z,1026.12
2023-03-01T03:45:30.919Z,1026.15
2023-03-01T03:46:30.862Z,1026.14
2023-03-01T03:47:30.860Z,1026.20
2023-03-01T03:48:30.830Z,1026.08
2023-03-01T03:49:30.872Z,1026.11
2023-03-01T03:50:30.834Z,1026.04
2023-03-01T03:51:30.801Z,1026.02
2023-03-01T03:52:30.847Z,1026.05
2023-03-01T03:53:30.782Z,1026.12
2023-03-01T03:54:30.787Z,1026.04
2023-03-01T03:55:30.789Z,1026.12
2023-03-01T03:56:31.023Z,1026.05
2023-03-01T03:57:30.793Z,1026.10
2023-03-01T03:58:30.697Z,1026.16
2023-03-01T03:59:30.738Z,1026.07
2023-03-01T04:00:30.688Z,1026.00
2023-03-01T04:01:30.703Z,1026.05
2023-03-01T04:02:30.705Z,1026.01
2023-03-01T04:03:30.661Z,1026.02
2023-03-01T04:04:30.659Z,1026.03
2023-03-01T04:05:30.659Z,1026.04
2023-03-01T04:06:30.911Z,1025.95
2023-03-01T04:07:30.670Z,1026.01
2023-03-01T04:08:30.609Z,1025.95
2023-03-01T04:09:30.604Z,1025.98
2023-03-01T04:10:30.573Z,1025.94
2023-03-01T04:11:30.603Z,1025.87
2023-03-01T04:12:30.573Z,1025.89
2023-03-01T04:13:30.528Z,1025.87
2023-03-01T04:14:30.529Z,1025.83
2023-03-01T04:15:30.541Z,1025.90
2023-03-01T04:16:31.060Z,1025.82
2023-03-01T04:17:30.520Z,1025.80
2023-03-01T04:18:30.461Z,1025.85
2023-03-01T04:19:30.482Z,1025.88
2023-03-01T04:20:30.431Z,1025.88
2023-03-01T04:21:30.461Z,1025.92
2023-03-01T04:22:30.421Z,1025.84
2023-03-01T04:23:30.438Z,1025.84
2023-03-01T04:24:30.382Z,1025.86
2023-03-01T04:25:30.375Z,1025.78
2023-03-01T04:26:30.581Z,1025.79
2023-03-01T04:27:30.391Z,1025.76
2023-03-01T04:28:30.333Z,1025.78
2023-03-01T04:29:30.335Z,1025.73
2023-03-01T04:30:30.301Z,1025.76
2023-03-01T04:31:30.392Z,1025.81
2023-03-01T04:32:30.336Z,1025.80
2023-03-01T04:33:30.296Z,1025.76
2023-03-01T04:34:30.262Z,1025.77
2023-03-01T04:35:30.392Z,1025.78
2023-03-01T04:36:31.032Z,1025.75
2023-03-01T04:37:30.237Z,1025.74
2023-03-01T04:38:30.208Z,1025.76
2023-03-01T04:39:30.210Z,1025.84
2023-03-01T04:40:30.206Z,1025.84
2023-03-01T04:41:30.215Z,1025.86
2023-03-01T04:42:30.158Z,1025.84
2023-03-01T04:43:30.154Z,1025.73
2023-03-01T04:44:30.116Z,1025.81
2023-03-01T04:45:30.165Z,1025.77
2023-03-01T04:46:30.755Z,1025.81
2023-03-01T04:47:30.106Z,1025.79
2023-03-01T04:48:30.086Z,1025.85
2023-03-01T04:49:30.090Z,1025.83
2023-03-01T04:50:30.088Z,1025.80
2023-03-01T04:51:30.089Z,1025.84
2023-03-01T04:52:30.025Z,1025.82
2023-03-01T04:53:30.044Z,1025.75
2023-03-01T04:54:30.043Z,1025.77
2023-03-01T04:55:30.032Z,1025.73
2023-03-01T04:56:30.374Z,1025.77
2023-03-01T04:57:29.997Z,1025.66
2023-03-01T04:58:30.035Z,1025.68
2023-03-01T04:59:29.989Z,1025.68
2023-03-01T05:00:29.934Z,1025.76
2023-03-01T05:01:29.945Z,1025.69
2023-03-01T05:02:29.969Z,1025.73
2023-03-01T05:03:29.927Z,1025.71
2023-03-01T05:04:29.945Z,1025.69
2023-03-01T05:05:29.869Z,1025.69
2023-03-01T05:06:30.215Z,1025.64
2023-03-01T05:07:29.865Z,1025.58
2023-03-01T05:08:29.862Z,1025.70
2023-03-01T05:09:29.858Z,1025.62
2023-03-01T05:10:29.844Z,1025.63
2023-03-01T05:11:29.817Z,1025.67
2023-03-01T05:12:29.824Z,1025.68
2023-03-01T05:13:29.788Z,1025.67
2023-03-01T05:14:29.805Z,1025.70
2023-03-01T05:15:29.967Z,1025.69
2023-03-01T05:16:30.112Z,1025.70
2023-03-01T05:17:29.717Z,1025.68
2023-03-01T05:18:29.730Z,1025.63
2023-03-01T05:19:29.696Z,1025.67
2023-03-01T05:20:29.768Z,1025.68
2023-03-01T05:21:29.667Z,1025.73
2023-03-01T05:22:29.690Z,1025.70
2023-03-01T05:23:29.667Z,1025.69
2023-03-01T05:24:29.648Z,1025.71
2023-03-01T05:25:29.630Z,1025.72
2023-03-01T05:26:29.606Z,1025.70
2023-03-01T05:27:29.595Z,1025.75
2023-03-01T05:28:29.594Z,1025.70
2023-03-01T05:29:29.583Z,1025.73
2023-03-01T05:30:29.581Z,1025.72
2023-03-01T05:31:29.678Z,1025.78
2023-03-01T05:32:29.569Z,1025.72
2023-03-01T05:33:29.544Z,1025.76
2023-03-01T05:34:29.552Z,1025.75
2023-03-01T05:35:29.562Z,1025.72
2023-03-01T05:36:30.041Z,1025.71
2023-03-01T05:37:29.470Z,1025.67
2023-03-01T05:38:29.514Z,1025.66
2023-03-01T05:39:29.447Z,1025.71
2023-03-01T05:40:29.462Z,1025.69
2023-03-01T05:41:29.451Z,1025.74
2023-03-01T05:42:29.440Z,1025.67
2023-03-01T05:43:29.446Z,1025.72
2023-03-01T05:44:29.423Z,1025.70
2023-03-01T05:45:29.394Z,1025.69
2023-03-01T05:46:29.688Z,1025.67
2023-03-01T05:47:29.377Z,1025.67
2023-03-01T05:48:29.407Z,1025.65
2023-03-01T05:49:29.324Z,1025.61
2023-03-01T05:50:29.365Z,1025.59
2023-03-01T05:51:29.328Z,1025.65
2023-03-01T05:52:29.288Z,1025.66
2023-03-01T05:53:29.316Z,1025.64
2023-03-01T05:54:29.290Z,1025.62
2023-03-01T05:55:29.308Z,1025.63
2023-03-01T05:56:29.632Z,1025.64
2023-03-01T05:57:29.208Z,1025.69
2023-03-01T05:58:29.257Z,1025.67
2023-03-01T05:59:29.238Z,1025.66
2023-03-01T06:00:29.191Z,1025.75
2023-03-01T06:01:29.171Z,1025.63
2023-03-01T06:02:29.174Z,1025.68
2023-03-01T06:03:29.195Z,1025.69
2023-03-01T06:04:29.210Z,1025.62
2023-03-01T06:05:29.187Z,1025.65
2023-03-01T06:06:29.436Z,1025.65
2023-03-01T06:07:29.105Z,1025.63
2023-03-01T06:08:29.136Z,1025.66
2023-03-01T06:09:29.101Z,1025.68
2023-03-01T06:10:29.080Z,1025.67
2023-03-01T06:11:29.053Z,1025.62
2023-03-01T06:12:29.073Z,1025.62
2023-03-01T06:13:29.077Z,1025.59
2023-03-01T06:14:29.029Z,1025.57
2023-03-01T06:15:29.064Z,1025.60
2023-03-01T06:16:29.519Z,1025.59
2023-03-01T06:17:29.017Z,1025.56
2023-03-01T06:18:29.009Z,1025.62
2023-03-01T06:19:28.956Z,1025.55
2023-03-01T06:20:29.104Z,1025.59
2023-03-01T06:21:28.948Z,1025.55
2023-03-01T06:22:28.931Z,1025.56
2023-03-01T06:23:28.941Z,1025.56
2023-03-01T06:24:28.923Z,1025.58
2023-03-01T06:25:28.871Z,1025.60
2023-03-01T06:26:29.254Z,1025.68
2023-03-01T06:27:28.876Z,1025.62
2023-03-01T06:28:28.898Z,1025.55
2023-03-01T06:29:28.841Z,1025.57
2023-03-01T06:30:28.823Z,1025.64
2023-03-01T06:31:28.892Z,1025.66
2023-03-01T06:32:28.802Z,1025.61
2023-03-01T06:33:28.828Z,1025.65
2023-03-01T06:34:28.806Z,1025.61
2023-03-01T06:35:28.768Z,1025.59
2023-03-01T06:36:29.131Z,1025.55
2023-03-01T06:37:28.720Z,1025.63
2023-03-01T06:38:28.721Z,1025.64
2023-03-01T06:39:28.721Z,1025.62
2023-03-01T06:40:28.696Z,1025.65
2023-03-01T06:41:28.697Z,1025.67
2023-03-01T06:42:28.691Z,1025.64
2023-03-01T06:43:28.643Z,1025.71
2023-03-01T06:44:28.744Z,1025.66
2023-03-01T06:45:28.681Z,1025.58
2023-03-01T06:46:28.995Z,1025.61
2023-03-01T06:47:28.620Z,1025.66
2023-03-01T06:48:28.625Z,1025.64
2023-03-01T06:49:28.616Z,1025.57
2023-03-01T06:50:28.673Z,1025.59
2023-03-01T06:51:28.575Z,1025.59
2023-03-01T06:52:28.577Z,1025.59
2023-03-01T06:53:28.518Z,1025.59
2023-03-01T06:54:28.554Z,1025.61
2023-03-01T06:55:28.537Z,1025.58
2023-03-01T06:56:28.819Z,1025.61
2023-03-01T06:57:28.491Z,1025.54
2023-03-01T06:58:28.498Z,1025.57
2023-03-01T06:59:28.506Z,1025.58
2023-03-01T07:00:28.480Z,1025.57
2023-03-01T07:01:28.441Z,1025.55
2023-03-01T07:02:28.449Z,1025.54
2023-03-01T07:03:28.418Z,1025.51
2023-03-01T07:04:28.442Z,1025.53
2023-03-01T07:05:28.417Z,1025.48
2023-03-01T07:06:28.630Z,1025.50
2023-03-01T07:07:28.376Z,1025.51
2023-03-01T07:08:28.373Z,1025.51
2023-03-01T07:09:28.328Z,1025.52
2023-03-01T07:10:28.364Z,1025.53
2023-03-01T07:11:28.294Z,1025.50
2023-03-01T07:12:28.337Z,1025.47
2023-03-01T07:13:28.296Z,1025.55
2023-03-01T07:14:28.264Z,1025.51
2023-03-01T07:15:28.256Z,1025.45
2023-03-01T07:16:28.370Z,1025.44
2023-03-01T07:17:28.242Z,1025.40
2023-03-01T07:18:28.252Z,1025.50
2023-03-01T07:19:28.200Z,1025.45
2023-03-01T07:20:28.230Z,1025.53
2023-03-01T07:21:28.221Z,1025.48
2023-03-01T07:22:28.201Z,1025.48
2023-03-01T07:23:28.152Z,1025.48
2023-03-01T07:24:28.143Z,1025.44
2023-03-01T07:25:28.148Z,1025.48
2023-03-01T07:26:28.562Z,1025.44
2023-03-01T07:27:28.118Z,1025.44
2023-03-01T07:28:28.103Z,1025.39
2023-03-01T07:29:28.083Z,1025.38
2023-03-01T07:30:28.215Z,1025.41
2023-03-01T07:31:28.069Z,1025.42
2023-03-01T07:32:28.178Z,1025.42
2023-03-01T07:33:28.045Z,1025.49
2023-03-01T07:34:28.046Z,1025.47
2023-03-01T07:35:28.129Z,1025.47
2023-03-01T07:36:28.147Z,1025.44
2023-03-01T07:37:27.998Z,1025.44
2023-03-01T07:38:27.979Z,1025.44
2023-03-01T07:39:27.977Z,1025.47
2023-03-01T07:40:27.984Z,1025.40
2023-03-01T07:41:27.920Z,1025.44
2023-03-01T07:42:27.970Z,1025.44
2023-03-01T07:43:27.894Z,1025.39
2023-03-01T07:44:27.893Z,1025.42
2023-03-01T07:45:27.911Z,1025.42
2023-03-01T07:46:27.928Z,1025.43
2023-03-01T07:47:27.924Z,1025.41
2023-03-01T07:48:27.916Z,1025.46
2023-03-01T07:49:27.852Z,1025.49
2023-03-01T07:50:27.917Z,1025.48
2023-03-01T07:51:27.838Z,1025.52
2023-03-01T07:52:27.830Z,1025.47
2023-03-01T07:53:27.822Z,1025.51
2023-03-01T07:54:27.794Z,1025.55
2023-03-01T07:55:27.808Z,1025.43
2023-03-01T07:56:27.782Z,1025.44
2023-03-01T07:57:27.737Z,1025.42
2023-03-01T07:58:27.765Z,1025.43
2023-03-01T07:59:27.704Z,1025.48
2023-03-01T08:00:27.824Z,1025.47
2023-03-01T08:01:27.718Z,1025.48
2023-03-01T08:02:27.673Z,1025.45
2023-03-01T08:03:27.673Z,1025.44
2023-03-01T08:04:27.661Z,1025.43
2023-03-01T08:05:27.657Z,1025.42
2023-03-01T08:06:27.659Z,1025.49
2023-03-01T08:07:27.588Z,1025.44
2023-03-01T08:08:27.630Z,1025.43
2023-03-01T08:09:27.594Z,1025.42
2023-03-01T08:10:27.571Z,1025.34
2023-03-01T08:11:27.619Z,1025.39
2023-03-01T08:12:27.586Z,1025.31
2023-03-01T08:13:27.547Z,1025.27
2023-03-01T08:14:27.515Z,1025.37
2023-03-01T08:15:27.496Z,1025.34
2023-03-01T08:16:27.569Z,1025.34
2023-03-01T08:17:27.474Z,1025.35
2023-03-01T08:18:27.768Z,1025.28
2023-03-01T08:19:27.488Z,1025.33
2023-03-01T08:20:27.442Z,1025.28
2023-03-01T08:21:27.415Z,1025.31
2023-03-01T08:22:27.419Z,1025.29
2023-03-01T08:23:27.408Z,1025.31
2023-03-01T08:24:27.448Z,1025.32
2023-03-01T08:25:27.411Z,1025.27
2023-03-01T08:26:27.362Z,1025.28
2023-03-01T08:27:27.356Z,1025.26
2023-03-01T08:28:27.378Z,1025.36
2023-03-01T08:29:27.333Z,1025.35
2023-03-01T08:30:27.361Z,1025.42
2023-03-01T08:31:27.386Z,1025.34
2023-03-01T08:32:27.344Z,1025.36
2023-03-01T08:33:27.328Z,1025.38
2023-03-01T08:34:27.299Z,1025.31
2023-03-01T08:35:27.315Z,1025.36
2023-03-01T08:36:27.307Z,1025.38
2023-03-01T08:37:27.220Z,1025.42
2023-03-01T08:38:27.241Z,1025.38
2023-03-01T08:39:27.256Z,1025.45
2023-03-01T08:40:27.226Z,1025.32
2023-03-01T08:41:27.224Z,1025.40
2023-03-01T08:42:27.187Z,1025.31
2023-03-01T08:43:27.174Z,1025.38
2023-03-01T08:44:27.172Z,1025.42
2023-03-01T08:45:27.145Z,1025.43
2023-03-01T08:46:27.117Z,1025.29
2023-03-01T08:47:27.169Z,1025.31
2023-03-01T08:48:27.114Z,1025.29
2023-03-01T08:49:27.114Z,1025.27
2023-03-01T08:50:27.094Z,1025.29
2023-03-01T08:51:27.085Z,1025.27
2023-03-01T08:52:27.092Z,1025.24
2023-03-01T08:53:27.014Z,1025.21
2023-03-01T08:54:27.052Z,1025.23
2023-03-01T08:55:27.025Z,1025.24
2023-03-01T08:56:27.002Z,1025.19
2023-03-01T08:57:27.037Z,1025.19
2023-03-01T08:58:27.004Z,1025.12
2023-03-01T08:59:26.984Z,1025.12
2023-03-01T09:00:26.945Z,1025.13
2023-03-01T09:01:26.916Z,1025.13
2023-03-01T09:02:27.033Z,1025.08
2023-03-01T09:03:26.916Z,1025.14
2023-03-01T09:04:26.930Z,1025.12
2023-03-01T09:05:26.904Z,1025.12
2023-03-01T09:06:26.881Z,1025.09
2023-03-01T09:07:26.852Z,1025.07
2023-03-01T09:08:26.997Z,1025.11
2023-03-01T09:09:26.841Z,1025.06
2023-03-01T09:10:26.852Z,1025.04
2023-03-01T09:11:26.818Z,1025.06
2023-03-01T09:12:26.823Z,1025.04
2023-03-01T09:13:26.850Z,1025.07
2023-03-01T09:14:26.810Z,1025.17
2023-03-01T09:15:26.762Z,1025.06
2023-03-01T09:16:26.763Z,1025.09
2023-03-01T09:17:26.752Z,1025.15
2023-03-01T09:18:26.743Z,1025.12
2023-03-01T09:19:27.501Z,1025.05
2023-03-01T09:20:26.726Z,1025.08
2023-03-01T09:21:39.716Z,1025.11
2023-03-01T09:22:27.712Z,1025.02
2023-03-01T09:23:26.694Z,1025.09
2023-03-01T09:24:27.411Z,1024.98
2023-03-01T09:25:26.673Z,1025.10
2023-03-01T09:26:26.613Z,1024.98
2023-03-01T09:27:26.603Z,1025.00
2023-03-01T09:28:29.969Z,1025.00
2023-03-01T09:29:26.577Z,1025.02
2023-03-01T09:30:27.291Z,1024.99
2023-03-01T09:31:26.892Z,1024.95
2023-03-01T09:32:26.624Z,1024.99
2023-03-01T09:33:26.549Z,1024.90
2023-03-01T09:34:26.547Z,1024.88
2023-03-01T09:35:26.512Z,1024.92
2023-03-01T09:36:26.580Z,1024.88
2023-03-01T09:37:26.503Z,1024.91
2023-03-01T09:38:27.061Z,1024.91
2023-03-01T09:39:26.455Z,1024.91
2023-03-01T09:40:26.497Z,1024.85
2023-03-01T09:41:26.468Z,1024.86
2023-03-01T09:42:26.432Z,1024.87
2023-03-01T09:43:26.446Z,1024.88
2023-03-01T09:44:26.414Z,1024.80
2023-03-01T09:45:26.422Z,1024.81
2023-03-01T09:46:26.501Z,1024.78
2023-03-01T09:47:26.403Z,1024.82
2023-03-01T09:48:26.353Z,1024.72
2023-03-01T09:49:26.335Z,1024.75
2023-03-01T09:50:26.382Z,1024.74
2023-03-01T09:51:26.304Z,1024.70
2023-03-01T09:52:26.297Z,1024.69
2023-03-01T09:53:26.293Z,1024.72
2023-03-01T09:54:26.287Z,1024.75
2023-03-01T09:55:26.294Z,1024.71
2023-03-01T09:56:26.283Z,1024.73
2023-03-01T09:57:26.340Z,1024.73
2023-03-01T09:58:26.280Z,1024.71
2023-03-01T09:59:26.703Z,1024.69
2023-03-01T10:00:26.228Z,1024.68
2023-03-01T10:01:27.207Z,1024.66
2023-03-01T10:02:26.202Z,1024.69
2023-03-01T10:03:26.282Z,1024.61
2023-03-01T10:04:26.186Z,1024.62
2023-03-01T10:05:26.151Z,1024.66
2023-03-01T10:06:34.851Z,1024.60
2023-03-01T10:07:27.147Z,1024.59
2023-03-01T10:08:26.082Z,1024.66
2023-03-01T10:09:26.104Z,1024.60
2023-03-01T10:10:26.088Z,1024.62
2023-03-01T10:11:26.131Z,1024.62
2023-03-01T10:12:26.067Z,1024.63
2023-03-01T10:13:26.241Z,1024.57
2023-03-01T10:14:26.033Z,1024.56
2023-03-01T10:15:26.034Z,1024.62
2023-03-01T10:16:25.980Z,1024.60
2023-03-01T10:17:26.063Z,1024.69
2023-03-01T10:18:25.972Z,1024.64
2023-03-01T10:19:26.016Z,1024.63
2023-03-01T10:20:25.958Z,1024.55
2023-03-01T10:21:25.940Z,1024.55
2023-03-01T10:22:25.926Z,1024.58
2023-03-01T10:23:25.900Z,1024.51
2023-03-01T10:24:26.088Z,1024.50
2023-03-01T10:25:25.928Z,1024.45
2023-03-01T10:26:25.890Z,1024.47
2023-03-01T10:27:25.954Z,1024.48
2023-03-01T10:28:25.910Z,1024.46
2023-03-01T10:29:25.945Z,1024.44
2023-03-01T10:30:25.962Z,1024.58
2023-03-01T10:31:25.850Z,1024.43
2023-03-01T10:32:25.893Z,1024.37
2023-03-01T10:33:25.776Z,1024.46
2023-03-01T10:34:25.781Z,1024.42
2023-03-01T10:35:25.817Z,1024.42
2023-03-01T10:36:25.764Z,1024.42
2023-03-01T10:37:25.740Z,1024.30
2023-03-01T10:38:25.739Z,1024.30
2023-03-01T10:39:25.728Z,1024.33
2023-03-01T10:40:25.693Z,1024.27
2023-03-01T10:41:25.799Z,1024.32
2023-03-01T10:42:25.683Z,1024.23
2023-03-01T10:43:25.679Z,1024.30
2023-03-01T10:44:25.684Z,1024.27
2023-03-01T10:45:26.956Z,1024.25
2023-03-01T10:46:25.641Z,1024.26
2023-03-01T10:47:25.683Z,1024.18
2023-03-01T10:48:25.606Z,1024.19
2023-03-01T10:49:25.601Z,1024.16
2023-03-01T10:50:25.567Z,1024.20
2023-03-01T10:51:25.610Z,1024.16
2023-03-01T10:52:25.561Z,1024.14
2023-03-01T10:53:25.542Z,1024.12
2023-03-01T10:54:25.546Z,1024.18
2023-03-01T10:55:25.536Z,1024.16
2023-03-01T10:56:25.471Z,1024.15
2023-03-01T10:57:25.470Z,1024.19
2023-03-01T10:58:25.458Z,1024.17
2023-03-01T10:59:25.479Z,1024.17
2023-03-01T11:00:25.421Z,1024.10
2023-03-01T11:01:25.550Z,1024.09
2023-03-01T11:02:26.184Z,1024.08
2023-03-01T11:03:25.391Z,1024.07
2023-03-01T11:04:25.447Z,1024.03
2023-03-01T11:05:25.403Z,1023.96
2023-03-01T11:06:25.356Z,1024.02
2023-03-01T11:07:25.369Z,1024.03
2023-03-01T11:09:18.009Z,1023.89
2023-03-01T11:10:17.972Z,1023.88
2023-03-01T11:11:18.018Z,1023.86
2023-03-01T11:12:18.010Z,1023.85
2023-03-01T11:13:17.977Z,1023.85
2023-03-01T11:14:26.328Z,1023.89
2023-03-01T11:15:18.950Z,1023.82
2023-03-01T11:16:17.999Z,1023.90
2023-03-01T11:17:17.899Z,1023.74
2023-03-01T11:18:17.866Z,1023.77
2023-03-01T11:19:17.898Z,1023.74
2023-03-01T11:20:17.877Z,1023.63
2023-03-01T11:21:17.942Z,1023.60
2023-03-01T11:22:17.895Z,1023.63
2023-03-01T11:23:17.902Z,1023.56
2023-03-01T11:24:17.839Z,1023.54
2023-03-01T11:25:17.790Z,1023.51
2023-03-01T11:26:17.777Z,1023.52
2023-03-01T11:27:17.806Z,1023.48
2023-03-01T11:28:17.747Z,1023.45
2023-03-01T11:29:17.775Z,1023.46
2023-03-01T11:30:17.730Z,1023.50
2023-03-01T11:31:17.832Z,1023.38
2023-03-01T11:32:17.843Z,1023.47
2023-03-01T11:33:17.701Z,1023.44
2023-03-01T11:34:17.700Z,1023.43
2023-03-01T11:35:17.689Z,1023.46
2023-03-01T11:36:17.795Z,1023.41
2023-03-01T11:37:17.656Z,1023.46
2023-03-01T11:38:17.618Z,1023.44
2023-03-01T11:39:17.646Z,1023.48
2023-03-01T11:40:17.626Z,1023.47
2023-03-01T11:41:17.617Z,1023.37
2023-03-01T11:42:19.283Z,1023.44
2023-03-01T11:43:17.596Z,1023.38
2023-03-01T11:44:17.547Z,1023.39
2023-03-01T11:45:17.553Z,1023.32
2023-03-01T11:46:17.588Z,1023.33
2023-03-01T11:47:17.580Z,1023.31
2023-03-01T11:48:17.485Z,1023.30
2023-03-01T11:49:17.475Z,1023.36
2023-03-01T11:50:17.528Z,1023.27
2023-03-01T11:51:17.462Z,1023.22
2023-03-01T11:52:17.488Z,1023.24
2023-03-01T11:53:17.407Z,1023.27
2023-03-01T11:54:17.449Z,1023.24
2023-03-01T11:55:17.384Z,1023.18
2023-03-01T11:56:17.390Z,1023.23
2023-03-01T11:57:17.386Z,1023.27
2023-03-01T11:58:17.357Z,1023.13
2023-03-01T11:59:17.371Z,1023.19
2023-03-01T12:00:17.358Z,1023.20
2023-03-01T12:01:17.355Z,1023.20
2023-03-01T12:02:17.401Z,1023.17
2023-03-01T12:03:17.288Z,1023.19
2023-03-01T12:04:17.380Z,1023.20
2023-03-01T12:05:17.298Z,1023.15
2023-03-01T12:06:17.292Z,1023.16